createdAt,value
2023-02-03T00:02:11.013Z,14.88
2023-02-03T00:04:38.035Z,11.15
2023-02-03T00:07:05.123Z,10.40
2023-02-03T00:09:32.213Z,7.25
2023-02-03T00:11:59.222Z,7.15
2023-02-03T00:14:26.286Z,10.63
2023-02-03T00:16:53.350Z,12.40
2023-02-03T00:19:20.410Z,8.68
2023-02-03T00:21:47.467Z,15.55
2023-02-03T00:24:14.673Z,10.10
2023-02-03T00:26:42.713Z,9.40
2023-02-03T00:29:09.808Z,14.45
2023-02-03T00:31:39.334Z,10.95
2023-02-03T00:34:06.412Z,11.87
2023-02-03T00:36:33.671Z,9.85
2023-02-03T00:39:01.444Z,8.35
2023-02-03T00:41:30.501Z,12.30
2023-02-03T00:43:57.563Z,10.02
2023-02-03T00:46:24.642Z,10.43
2023-02-03T00:48:51.657Z,12.05
2023-02-03T00:51:18.719Z,9.00
2023-02-03T00:53:45.716Z,9.43
2023-02-03T00:56:12.919Z,9.40
2023-02-03T00:58:43.038Z,13.20
2023-02-03T01:01:10.172Z,20.60
2023-02-03T01:03:37.207Z,11.68
2023-02-03T01:06:11.494Z,7.93
2023-02-03T01:08:38.504Z,9.70
2023-02-03T01:11:09.172Z,8.63
2023-02-03T01:13:36.811Z,9.63
2023-02-03T01:16:04.316Z,7.75
2023-02-03T01:18:31.329Z,6.63
2023-02-03T01:20:58.374Z,12.20
2023-02-03T01:23:25.393Z,7.22
2023-02-03T01:25:52.491Z,6.55
2023-02-03T01:28:19.477Z,12.05
2023-02-03T01:30:46.688Z,8.32
2023-02-03T01:33:13.763Z,7.00
2023-02-03T01:35:43.135Z,8.00
2023-02-03T01:38:10.106Z,9.57
2023-02-03T01:40:42.926Z,7.43
2023-02-03T01:43:10.749Z,9.10
2023-02-03T01:45:38.367Z,7.97
2023-02-03T01:48:05.537Z,7.15
2023-02-03T01:50:34.255Z,9.90
2023-02-03T01:53:04.133Z,7.88
2023-02-03T01:55:36.573Z,7.72
2023-02-03T01:58:06.487Z,10.93
2023-02-03T02:00:33.566Z,6.63
2023-02-03T02:03:02.447Z,9.88
2023-02-03T02:05:49.969Z,9.32
2023-02-03T02:08:18.891Z,5.45
2023-02-03T02:10:48.301Z,5.82
2023-02-03T02:13:16.317Z,7.95
2023-02-03T02:15:47.601Z,6.63
2023-02-03T02:18:23.757Z,7.20
2023-02-03T02:20:58.714Z,11.10
2023-02-03T02:23:49.078Z,5.95
2023-02-03T02:26:28.212Z,6.15
2023-02-03T02:29:13.693Z,6.43
2023-02-03T02:31:48.447Z,8.48
2023-02-03T02:34:19.888Z,6.22
2023-02-03T02:37:06.752Z,10.88
2023-02-03T02:39:56.912Z,5.20
2023-02-03T02:42:27.043Z,6.40
2023-02-03T02:47:24.169Z,5.25
2023-02-03T02:49:51.202Z,7.15
2023-02-03T02:52:18.916Z,4.50
2023-02-03T02:54:48.610Z,6.22
2023-02-03T02:57:17.475Z,6.00
2023-02-03T02:59:45.613Z,3.72
2023-02-03T03:02:12.655Z,6.50
2023-02-03T03:04:40.717Z,4.53
2023-02-03T03:07:07.761Z,6.75
2023-02-03T03:09:37.419Z,7.57
2023-02-03T03:12:10.943Z,8.17
2023-02-03T03:14:41.150Z,6.32
2023-02-03T03:17:10.161Z,9.18
2023-02-03T03:19:39.910Z,5.53
2023-02-03T03:22:08.107Z,5.95
2023-02-03T03:24:40.589Z,3.95
2023-02-03T03:27:40.116Z,4.45
2023-02-03T03:30:09.949Z,4.45
2023-02-03T03:32:37.133Z,5.22
2023-02-03T03:35:04.738Z,5.40
2023-02-03T03:37:41.349Z,5.72
2023-02-03T03:40:11.008Z,12.73
2023-02-03T03:42:37.992Z,2.83
2023-02-03T03:45:12.862Z,6.25
2023-02-03T03:48:00.682Z,7.32
2023-02-03T03:50:29.852Z,4.78
2023-02-03T03:52:58.172Z,5.97
2023-02-03T03:55:25.880Z,6.10
2023-02-03T03:57:55.767Z,4.43
2023-02-03T04:00:23.760Z,9.45
2023-02-03T04:02:53.205Z,10.30
2023-02-03T04:05:20.607Z,6.15
2023-02-03T04:07:47.897Z,15.10
2023-02-03T04:10:34.860Z,5.30
2023-02-03T04:13:04.534Z,5.10
2023-02-03T04:15:32.030Z,6.80
2023-02-03T04:18:01.294Z,5.45
2023-02-03T04:20:29.351Z,5.65
2023-02-03T04:22:57.042Z,5.40
2023-02-03T04:25:24.556Z,4.90
2023-02-03T04:27:51.644Z,6.47
2023-02-03T04:30:18.799Z,8.98
2023-02-03T04:32:46.360Z,8.00
2023-02-03T04:35:13.523Z,9.93
2023-02-03T04:37:40.902Z,7.75
2023-02-03T04:40:08.529Z,11.23
2023-02-03T04:42:37.984Z,8.27
2023-02-03T04:45:05.720Z,8.43
2023-02-03T04:50:11.132Z,6.00
2023-02-03T04:52:38.665Z,6.28
2023-02-03T04:55:05.989Z,3.45
2023-02-03T04:57:33.004Z,8.07
2023-02-03T05:00:00.018Z,3.15
2023-02-03T05:02:27.035Z,4.93
2023-02-03T05:04:56.820Z,4.25
2023-02-03T05:07:23.828Z,8.88
2023-02-03T05:09:50.879Z,3.65
2023-02-03T05:12:17.886Z,5.38
2023-02-03T05:14:44.975Z,4.22
2023-02-03T05:17:11.937Z,3.70
2023-02-03T05:19:39.094Z,3.78
2023-02-03T05:22:06.249Z,8.57
2023-02-03T05:24:33.275Z,7.45
2023-02-03T05:27:00.299Z,6.28
2023-02-03T05:29:27.341Z,5.85
2023-02-03T05:31:54.375Z,4.72
2023-02-03T05:34:21.451Z,2.95
2023-02-03T05:36:48.475Z,2.85
2023-02-03T05:39:15.513Z,9.80
2023-02-03T05:41:57.195Z,6.20
2023-02-03T05:44:26.813Z,7.07
2023-02-03T05:46:54.716Z,8.35
2023-02-03T05:49:23.309Z,6.03
2023-02-03T05:51:51.022Z,3.40
2023-02-03T05:54:18.096Z,4.68
2023-02-03T05:56:45.253Z,5.03
2023-02-03T05:59:15.640Z,7.18
2023-02-03T06:01:42.609Z,1.58
2023-02-03T06:04:09.771Z,6.38
2023-02-03T06:06:36.899Z,5.65
2023-02-03T06:09:05.271Z,6.78
2023-02-03T06:11:32.594Z,6.75
2023-02-03T06:14:00.212Z,2.38
2023-02-03T06:16:27.943Z,7.00
2023-02-03T06:18:55.598Z,7.57
2023-02-03T06:21:22.840Z,2.33
2023-02-03T06:23:49.904Z,3.83
2023-02-03T06:26:16.929Z,8.95
2023-02-03T06:28:43.937Z,9.00
2023-02-03T06:31:10.974Z,2.75
2023-02-03T06:33:38.088Z,4.95
2023-02-03T06:36:05.298Z,4.80
2023-02-03T06:38:32.350Z,3.60
2023-02-03T06:40:59.346Z,4.90
2023-02-03T06:43:26.412Z,2.10
2023-02-03T06:45:53.951Z,3.28
2023-02-03T06:48:21.026Z,2.10
2023-02-03T06:50:48.824Z,7.97
2023-02-03T06:53:16.127Z,5.78
2023-02-03T06:55:43.187Z,6.45
2023-02-03T06:58:10.218Z,6.93
2023-02-03T07:00:39.118Z,4.15
2023-02-03T07:03:06.149Z,5.22
2023-02-03T07:05:33.197Z,2.67
2023-02-03T07:08:00.247Z,2.25
2023-02-03T07:10:27.665Z,3.35
2023-02-03T07:12:54.991Z,7.22
2023-02-03T07:15:21.997Z,5.82
2023-02-03T07:17:54.569Z,3.72
2023-02-03T07:20:26.003Z,2.45
2023-02-03T07:22:56.992Z,5.28
2023-02-03T07:25:24.573Z,3.08
2023-02-03T07:27:51.829Z,2.47
2023-02-03T07:30:18.988Z,3.13
2023-02-03T07:32:50.041Z,8.82
2023-02-03T07:35:17.180Z,3.58
2023-02-03T07:37:44.470Z,6.32
2023-02-03T07:40:12.240Z,2.80
2023-02-03T07:42:43.426Z,11.57
2023-02-03T07:45:11.244Z,6.40
2023-02-03T07:47:38.280Z,5.20
2023-02-03T07:50:05.407Z,4.18
2023-02-03T07:52:32.515Z,4.10
2023-02-03T07:54:59.508Z,5.00
2023-02-03T07:57:28.271Z,5.78
2023-02-03T07:59:55.342Z,5.13
2023-02-03T08:02:22.483Z,5.05
2023-02-03T08:04:49.836Z,5.30
2023-02-03T08:07:16.904Z,8.65
2023-02-03T08:09:43.981Z,5.13
2023-02-03T08:12:11.099Z,2.95
2023-02-03T08:14:38.114Z,2.05
2023-02-03T08:17:07.598Z,4.40
2023-02-03T08:19:35.255Z,2.75
2023-02-03T08:22:02.244Z,4.85
2023-02-03T08:24:32.925Z,4.30
2023-02-03T08:27:03.479Z,2.55
2023-02-03T08:31:58.632Z,3.65
2023-02-03T08:34:25.775Z,2.50
2023-02-03T08:36:52.941Z,2.63
2023-02-03T08:42:01.563Z,11.85
2023-02-03T08:44:28.596Z,3.90
2023-02-03T08:46:55.622Z,5.93
2023-02-03T08:49:29.615Z,6.13
2023-02-03T08:51:57.352Z,9.32
2023-02-03T08:54:25.187Z,2.65
2023-02-03T08:56:52.258Z,5.55
2023-02-03T08:59:19.473Z,3.50
2023-02-03T09:01:48.384Z,5.38
2023-02-03T09:04:19.137Z,5.38
2023-02-03T09:06:49.986Z,2.03
2023-02-03T09:09:24.918Z,3.55
2023-02-03T09:11:57.006Z,7.32
2023-02-03T09:14:25.278Z,3.80
2023-02-03T09:16:52.284Z,2.58
2023-02-03T09:19:19.489Z,5.15
2023-02-03T09:21:49.008Z,3.55
2023-02-03T09:24:16.982Z,3.00
2023-02-03T09:26:44.520Z,2.55
2023-02-03T09:29:11.540Z,5.38
2023-02-03T09:31:38.642Z,6.38
2023-02-03T09:34:05.645Z,4.72
2023-02-03T09:36:32.752Z,4.40
2023-02-03T09:38:59.741Z,5.32
2023-02-03T09:41:29.796Z,4.50
2023-02-03T09:43:56.748Z,3.58
2023-02-03T09:46:26.286Z,6.40
2023-02-03T09:48:58.466Z,4.60
2023-02-03T09:51:31.285Z,5.03
2023-02-03T09:56:50.690Z,3.85
2023-02-03T09:59:17.745Z,8.63
2023-02-03T10:01:53.949Z,9.57
2023-02-03T10:04:27.719Z,5.22
2023-02-03T10:07:00.164Z,4.43
2023-02-03T10:09:32.987Z,5.10
2023-02-03T10:12:18.905Z,2.90
2023-02-03T10:14:48.944Z,3.45
2023-02-03T10:17:30.163Z,6.13
2023-02-03T10:19:57.205Z,4.80
2023-02-03T10:22:28.322Z,6.03
2023-02-03T10:24:58.530Z,2.80
2023-02-03T10:27:25.710Z,5.18
2023-02-03T10:29:58.253Z,5.45
2023-02-03T10:32:26.940Z,6.47
2023-02-03T10:34:54.105Z,5.63
2023-02-03T10:37:30.498Z,3.83
2023-02-03T10:39:58.291Z,5.75
2023-02-03T10:42:25.830Z,4.18
2023-02-03T10:44:54.601Z,4.95
2023-02-03T10:47:24.512Z,5.97
2023-02-03T10:49:57.465Z,4.18
2023-02-03T10:52:27.613Z,3.47
2023-02-03T10:54:55.975Z,8.23
2023-02-03T10:57:23.370Z,5.30
2023-02-03T10:59:54.945Z,2.72
2023-02-03T11:02:25.097Z,3.38
2023-02-03T11:05:10.665Z,2.25
2023-02-03T11:07:37.734Z,5.85
2023-02-03T11:10:04.844Z,1.73
2023-02-03T11:12:31.942Z,2.10
2023-02-03T11:15:06.068Z,3.78
2023-02-03T11:17:36.461Z,4.63
2023-02-03T11:20:06.544Z,4.50
2023-02-03T11:22:36.401Z,2.95
2023-02-03T11:25:04.825Z,4.65
2023-02-03T11:27:32.629Z,3.05
2023-02-03T11:30:16.415Z,3.38
2023-02-03T11:32:51.584Z,4.35
2023-02-03T11:35:18.751Z,3.70
2023-02-03T11:37:46.933Z,2.03
2023-02-03T11:40:18.082Z,3.65
2023-02-03T11:42:46.495Z,4.93
2023-02-03T11:45:33.825Z,7.72
2023-02-03T11:48:03.193Z,3.78
2023-02-03T11:50:54.842Z,2.88
2023-02-03T11:53:27.688Z,3.47
2023-02-03T11:56:33.181Z,3.35
2023-02-03T11:59:02.947Z,9.23
2023-02-03T12:01:53.257Z,1.93
2023-02-03T12:04:26.627Z,4.35
2023-02-03T12:07:14.037Z,2.35
2023-02-03T12:09:41.024Z,4.15
2023-02-03T12:12:19.087Z,4.07
2023-02-03T12:14:53.764Z,4.88
2023-02-03T12:17:42.097Z,4.45
2023-02-03T12:20:42.292Z,5.35
2023-02-03T12:23:25.007Z,7.38
2023-02-03T12:26:05.034Z,3.03
2023-02-03T12:28:34.994Z,3.28
2023-02-03T12:31:27.326Z,6.95
2023-02-03T12:33:58.805Z,6.35
2023-02-03T12:36:29.619Z,3.55
2023-02-03T12:39:09.597Z,5.28
2023-02-03T12:41:38.989Z,5.07
2023-02-03T12:44:08.717Z,7.88
2023-02-03T12:46:41.237Z,7.85
2023-02-03T12:49:24.232Z,8.68
2023-02-03T12:52:00.140Z,6.25
2023-02-03T12:54:45.719Z,5.28
2023-02-03T12:57:24.864Z,7.85
2023-02-03T13:00:12.086Z,6.00
2023-02-03T13:03:05.408Z,7.35
2023-02-03T13:05:47.767Z,7.18
2023-02-03T13:08:34.675Z,5.68
2023-02-03T13:11:34.681Z,6.13
2023-02-03T13:14:04.738Z,4.85
2023-02-03T13:16:36.777Z,11.80
2023-02-03T13:19:06.022Z,6.93
2023-02-03T13:21:33.189Z,8.63
2023-02-03T13:24:00.363Z,12.45
2023-02-03T13:26:42.979Z,10.77
2023-02-03T13:29:29.829Z,9.93
2023-02-03T13:35:01.197Z,9.70
2023-02-03T13:37:37.257Z,8.55
2023-02-03T13:40:07.123Z,12.00
2023-02-03T13:42:37.933Z,13.05
2023-02-03T13:45:21.651Z,10.13
2023-02-03T13:47:51.285Z,10.60
2023-02-03T13:53:07.820Z,8.43
2023-02-03T13:55:37.747Z,12.07
2023-02-03T13:58:05.727Z,13.50
2023-02-03T14:00:44.973Z,14.90
2023-02-03T14:03:18.068Z,10.82
2023-02-03T14:05:49.368Z,12.00
2023-02-03T14:14:02.407Z,13.77
2023-02-03T14:16:34.988Z,15.07
2023-02-03T14:19:02.124Z,14.32
2023-02-03T14:21:31.512Z,15.77
2023-02-03T14:24:00.077Z,12.38
2023-02-03T14:26:38.709Z,14.23
2023-02-03T14:43:12.139Z,15.77
2023-02-03T15:27:06.498Z,15.23
2023-02-03T15:29:34.211Z,14.88
2023-02-03T15:32:07.388Z,15.23
2023-02-03T15:34:40.300Z,13.57
2023-02-03T15:37:26.458Z,17.20
2023-02-03T15:39:58.642Z,16.08
2023-02-03T15:42:30.711Z,18.70
2023-02-03T15:45:07.837Z,17.17
2023-02-03T15:47:36.504Z,13.13
2023-02-03T15:52:37.687Z,12.55
2023-02-03T15:55:11.245Z,16.15
2023-02-03T15:57:38.475Z,18.73
2023-02-03T16:00:26.559Z,13.63
2023-02-03T16:02:54.197Z,11.80
2023-02-03T16:05:24.659Z,14.77
2023-02-03T16:10:33.875Z,16.52
2023-02-03T16:13:22.590Z,15.52
2023-02-03T16:16:15.414Z,16.88
2023-02-03T16:18:50.625Z,10.98
2023-02-03T16:21:36.061Z,16.60
2023-02-03T16:24:05.792Z,17.10
2023-02-03T16:26:34.302Z,16.17
2023-02-03T16:29:22.974Z,14.10
2023-02-03T16:31:56.197Z,13.00
2023-02-03T16:52:21.539Z,19.98
2023-02-03T16:54:48.559Z,15.00
2023-02-03T16:57:15.605Z,20.73
2023-02-03T16:59:42.578Z,16.52
2023-02-03T17:02:10.988Z,15.93
2023-02-03T17:07:20.719Z,23.02
2023-02-03T17:09:47.721Z,19.17
2023-02-03T17:12:15.681Z,28.67
2023-02-03T17:14:42.679Z,20.48
2023-02-03T17:17:09.679Z,23.15
2023-02-03T17:19:44.122Z,25.95
2023-02-03T17:22:11.113Z,26.02
2023-02-03T17:24:38.077Z,29.83
2023-02-03T17:27:05.057Z,26.83
2023-02-03T17:29:32.169Z,33.30
2023-02-03T17:31:59.228Z,33.88
2023-02-03T17:37:10.531Z,26.70
2023-02-03T17:53:20.152Z,20.60
2023-02-03T18:01:02.183Z,22.45
2023-02-03T18:03:34.872Z,22.17
2023-02-03T18:06:04.282Z,23.67
2023-02-03T18:08:31.496Z,17.80
2023-02-03T18:10:59.593Z,17.40
2023-02-03T18:15:57.493Z,19.38
2023-02-03T18:18:25.940Z,18.77
2023-02-03T18:20:53.148Z,19.02
2023-02-03T18:23:20.175Z,10.10
2023-02-03T18:31:18.893Z,13.77
2023-02-03T18:33:50.196Z,17.50
2023-02-03T18:36:21.039Z,17.55
2023-02-03T18:38:48.353Z,16.20
2023-02-03T18:41:18.661Z,19.63
2023-02-03T18:43:46.762Z,19.58
2023-02-03T18:46:16.613Z,17.77
2023-02-03T18:48:46.146Z,19.13
2023-02-03T18:53:46.665Z,20.60
2023-02-03T18:56:18.522Z,24.40
2023-02-03T18:58:46.087Z,15.27
2023-02-03T19:01:23.169Z,16.13
2023-02-03T19:09:23.654Z,13.70
2023-02-03T19:11:50.813Z,18.73
2023-02-03T19:14:18.122Z,12.50
2023-02-03T19:16:45.162Z,16.63
2023-02-03T19:19:15.193Z,18.20
2023-02-03T19:21:42.272Z,19.05
2023-02-03T19:24:10.519Z,19.60
2023-02-03T19:26:37.558Z,21.42
2023-02-03T19:29:04.574Z,16.90
2023-02-03T19:31:31.681Z,14.68
2023-02-03T19:36:34.627Z,18.42
2023-02-03T19:41:47.594Z,25.73
2023-02-03T19:44:14.927Z,25.65
2023-02-03T19:46:42.262Z,22.13
2023-02-03T19:49:13.091Z,27.08
2023-02-03T19:51:40.740Z,20.73
2023-02-03T19:54:08.250Z,19.40
2023-02-03T19:56:37.482Z,20.52
2023-02-03T19:59:04.544Z,26.83
2023-02-03T20:01:31.879Z,26.58
2023-02-03T20:04:01.965Z,19.20
2023-02-03T20:06:29.117Z,22.42
2023-02-03T20:08:56.277Z,20.70
2023-02-03T20:11:23.487Z,20.70
2023-02-03T20:13:50.740Z,20.45
2023-02-03T20:16:17.804Z,28.63
2023-02-03T20:18:45.110Z,23.48
2023-02-03T20:21:14.101Z,25.08
2023-02-03T20:23:41.118Z,20.05
2023-02-03T20:26:08.178Z,23.02
2023-02-03T20:28:35.379Z,19.48
2023-02-03T20:31:02.969Z,19.33
2023-02-03T20:33:31.054Z,21.45
2023-02-03T20:35:58.547Z,23.42
2023-02-03T20:38:25.606Z,20.00
2023-02-03T20:40:52.682Z,24.90
2023-02-03T20:43:24.585Z,36.38
2023-02-03T20:45:52.019Z,26.35
2023-02-03T20:48:20.098Z,20.70
2023-02-03T20:50:48.048Z,17.38
2023-02-03T20:53:16.737Z,20.58
2023-02-03T20:55:43.772Z,17.65
2023-02-03T20:58:33.490Z,29.00
2023-02-03T21:01:00.829Z,26.73
2023-02-03T21:03:46.711Z,22.70
2023-02-03T21:06:15.119Z,22.02
2023-02-03T21:08:43.056Z,23.13
2023-02-03T21:11:11.296Z,18.27
2023-02-03T21:13:38.648Z,18.33
2023-02-03T21:16:17.915Z,19.23
2023-02-03T21:18:47.967Z,24.35
2023-02-03T21:21:16.164Z,26.50
2023-02-03T21:23:47.160Z,23.63
2023-02-03T21:26:25.550Z,23.15
2023-02-03T21:28:53.851Z,24.27
2023-02-03T21:31:23.227Z,19.20
2023-02-03T21:33:50.273Z,19.95
2023-02-03T21:36:18.280Z,22.20
2023-02-03T21:38:47.004Z,27.55
2023-02-03T21:41:20.429Z,23.75
2023-02-03T21:43:49.984Z,28.65
2023-02-03T21:46:22.394Z,25.20
2023-02-03T21:48:50.631Z,24.95
2023-02-03T21:51:23.355Z,22.65
2023-02-03T21:53:55.464Z,25.63
2023-02-03T21:56:24.349Z,23.65
2023-02-03T21:58:51.989Z,25.52
2023-02-03T22:01:19.968Z,24.52
2023-02-03T22:03:51.501Z,24.63
2023-02-03T22:06:24.409Z,30.33
2023-02-03T22:08:55.562Z,28.05
2023-02-03T22:11:23.491Z,29.88
2023-02-03T22:13:50.509Z,24.98
2023-02-03T22:16:18.138Z,18.55
2023-02-03T22:18:46.302Z,25.13
2023-02-03T22:21:13.755Z,21.30
2023-02-03T22:23:41.125Z,22.42
2023-02-03T22:26:09.080Z,25.75
2023-02-03T22:28:36.267Z,29.33
2023-02-03T22:31:07.498Z,23.02
2023-02-03T22:33:34.987Z,26.45
2023-02-03T22:36:03.222Z,23.95
2023-02-03T22:38:30.712Z,26.83
2023-02-03T22:40:57.794Z,25.08
2023-02-03T22:43:24.908Z,20.77
2023-02-03T22:45:52.193Z,30.35
2023-02-03T22:48:19.300Z,30.52
2023-02-03T22:50:46.339Z,24.95
2023-02-03T22:53:14.007Z,24.48
2023-02-03T22:55:41.510Z,25.67
2023-02-03T22:58:08.742Z,20.05
2023-02-03T23:00:35.819Z,27.05
2023-02-03T23:03:04.205Z,28.17
2023-02-03T23:05:31.688Z,30.77
2023-02-03T23:07:58.903Z,26.17
2023-02-03T23:10:30.874Z,28.77
2023-02-03T23:13:00.588Z,31.42
2023-02-03T23:15:28.508Z,25.70
2023-02-03T23:17:55.960Z,23.20
2023-02-03T23:20:23.285Z,21.70
2023-02-03T23:22:50.753Z,24.42
2023-02-03T23:25:18.090Z,26.70
2023-02-03T23:27:45.419Z,27.77
2023-02-03T23:30:12.966Z,23.75
2023-02-03T23:32:40.264Z,29.13
2023-02-03T23:35:26.380Z,24.13
2023-02-03T23:37:53.630Z,27.25
2023-02-03T23:40:21.120Z,25.55
2023-02-03T23:42:48.334Z,26.65
2023-02-03T23:45:16.330Z,20.95
2023-02-03T23:47:44.528Z,22.10
2023-02-03T23:50:12.544Z,21.80
2023-02-03T23:52:39.833Z,27.70
2023-02-03T23:55:08.151Z,28.00
2023-02-03T23:57:36.988Z,16.42
